Time;durP1;ratioP1;P1;durP2;ratioP2;P2;SDS_P1;SDS_P2;PMS_P1;PMS_P2;Temp;Humidity;BMP_temperature;BMP_pressure;BME280_temperature;BME280_humidity;BME280_pressure;Samples;Min_cycle;Max_cycle;Signal;HPM_P1;HPM_P2
2022/08/31 00:04:56;;;;;;;;;12.33;11.33;;;;;24.20;68.68;100473.53;5019507;28;45479;-76
2022/08/31 00:07:22;;;;;;;;;12.33;11.33;;;;;24.23;68.23;100469.88;5019376;28;45517;-71
2022/08/31 00:09:48;;;;;;;;;13.67;12.67;;;;;24.21;67.38;100466.38;5019046;28;45442;-76
2022/08/31 00:12:14;;;;;;;;;11.33;10.00;;;;;24.15;67.44;100451.44;5018035;28;45448;-77
2022/08/31 00:14:40;;;;;;;;;12.00;12.00;;;;;24.11;68.05;100447.06;5018144;28;45768;-76
2022/08/31 00:17:06;;;;;;;;;10.33;10.00;;;;;24.20;68.32;100467.31;5019465;28;45498;-76
2022/08/31 00:19:31;;;;;;;;;11.00;11.00;;;;;24.10;67.85;100449.81;5017617;28;45657;-75
2022/08/31 00:21:57;;;;;;;;;11.00;10.00;;;;;24.04;67.98;100436.63;5018566;28;45510;-76
2022/08/31 00:24:22;;;;;;;;;11.33;11.00;;;;;24.17;67.68;100457.63;5019157;28;45447;-76
2022/08/31 00:26:48;;;;;;;;;13.33;12.00;;;;;23.99;67.49;100431.41;5018903;28;45369;-76
2022/08/31 00:29:14;;;;;;;;;16.67;13.00;;;;;24.14;68.01;100457.69;5018930;28;46609;-76
2022/08/31 00:31:41;;;;;;;;;12.67;11.00;;;;;24.15;67.75;100464.78;5018792;28;45371;-76
2022/08/31 00:34:06;;;;;;;;;13.33;12.33;;;;;24.09;67.53;100456.06;5018627;28;45471;-76
2022/08/31 00:36:32;;;;;;;;;11.67;11.67;;;;;24.12;68.26;100466.66;5018854;28;45314;-76
2022/08/31 00:38:58;;;;;;;;;12.00;11.00;;;;;24.02;68.29;100448.22;5018407;28;45494;-76
2022/08/31 00:41:27;;;;;;;;;14.00;11.00;;;;;24.06;68.04;100451.69;5018403;28;45536;-76
2022/08/31 00:43:55;;;;;;;;;11.67;10.67;;;;;24.01;68.13;100437.56;5018680;28;45373;-76
2022/08/31 00:46:33;;;;;;;;;13.00;12.33;;;;;23.95;68.59;100427.06;5018491;28;45493;-76
2022/08/31 00:49:03;;;;;;;;;11.00;10.67;;;;;23.75;69.21;100396.44;5018039;28;45469;-76
2022/08/31 00:51:32;;;;;;;;;15.00;11.67;;;;;23.77;69.87;100412.41;5018236;28;45462;-76
2022/08/31 00:53:59;;;;;;;;;12.00;11.00;;;;;23.68;70.08;100399.34;5017777;28;45457;-76
2022/08/31 00:56:25;;;;;;;;;13.00;12.00;;;;;23.74;70.45;100421.38;5018161;28;45476;-66
2022/08/31 00:58:52;;;;;;;;;10.33;10.00;;;;;23.70;69.80;100422.38;5017762;28;46030;-66
2022/08/31 01:01:18;;;;;;;;;10.00;10.00;;;;;23.75;70.10;100431.09;5018147;28;45522;-66
2022/08/31 01:03:46;;;;;;;;;12.00;10.00;;;;;23.76;69.97;100421.34;5018187;28;45489;-66
2022/08/31 01:06:13;;;;;;;;;14.33;12.00;;;;;23.65;69.91;100399.41;5018383;28;45502;-66
2022/08/31 01:08:40;;;;;;;;;12.33;11.33;;;;;23.67;69.88;100405.56;5017680;28;45487;-66
2022/08/31 01:11:06;;;;;;;;;13.00;12.00;;;;;23.75;69.54;100417.78;5016491;28;45593;-76
2022/08/31 01:13:32;;;;;;;;;13.33;12.33;;;;;23.76;69.56;100413.34;5017823;28;45364;-73
2022/08/31 01:16:04;;;;;;;;;12.00;11.00;;;;;23.76;69.93;100406.22;5018284;28;45498;-76
2022/08/31 01:18:32;;;;;;;;;11.33;10.33;;;;;23.73;69.31;100408.06;5017887;28;45501;-76
2022/08/31 01:21:25;;;;;;;;;14.67;13.00;;;;;23.82;69.48;100423.88;5017626;28;45384;-76
2022/08/31 01:23:55;;;;;;;;;13.00;11.33;;;;;23.86;69.78;100422.00;5017319;28;46032;-76
2022/08/31 01:26:24;;;;;;;;;11.33;10.33;;;;;23.80;69.57;100399.03;5016253;28;45515;-74
2022/08/31 01:28:56;;;;;;;;;13.00;12.00;;;;;23.87;69.86;100413.94;5017518;28;45526;-72
2022/08/31 01:31:26;;;;;;;;;14.00;12.00;;;;;23.74;70.05;100396.50;5017523;28;45560;-76
2022/08/31 01:33:51;;;;;;;;;11.00;10.00;;;;;23.80;69.65;100402.56;5017397;28;45482;-76
2022/08/31 01:36:19;;;;;;;;;13.33;12.00;;;;;23.82;69.18;100407.88;5016609;28;45527;-77
2022/08/31 01:38:45;;;;;;;;;10.67;10.00;;;;;23.76;69.33;100400.00;5017577;28;45571;-76
2022/08/31 01:41:11;;;;;;;;;13.00;11.00;;;;;23.76;69.15;100397.34;5017513;28;45316;-66
2022/08/31 01:43:37;;;;;;;;;11.67;11.00;;;;;23.78;69.18;100400.88;5017478;28;45538;-66
2022/08/31 01:46:07;;;;;;;;;12.33;11.33;;;;;23.73;69.46;100397.41;5017623;28;45444;-66
2022/08/31 01:48:34;;;;;;;;;13.00;12.33;;;;;23.77;69.45;100407.06;5017248;28;45547;-66
2022/08/31 01:51:00;;;;;;;;;13.67;12.00;;;;;23.79;69.56;100403.47;5016218;28;45320;-66
2022/08/31 01:53:27;;;;;;;;;12.00;11.33;;;;;23.75;70.05;100395.56;5017483;28;45428;-65
2022/08/31 01:55:52;;;;;;;;;16.00;12.67;;;;;23.66;69.92;100377.16;5017251;28;45454;-66
2022/08/31 01:58:18;;;;;;;;;15.67;13.00;;;;;23.74;70.02;100400.03;5017376;28;46092;-76
2022/08/31 02:00:44;;;;;;;;;16.33;14.33;;;;;23.75;69.71;100400.91;5015893;28;45491;-76
2022/08/31 02:03:10;;;;;;;;;14.00;13.00;;;;;23.76;70.16;100395.53;5017400;28;45464;-73
2022/08/31 02:05:37;;;;;;;;;13.33;13.33;;;;;23.74;70.31;100393.84;5017585;28;45193;-76
2022/08/31 02:08:05;;;;;;;;;14.33;13.67;;;;;23.70;70.60;100398.38;5017057;28;46258;-76
2022/08/31 02:10:30;;;;;;;;;12.33;12.33;;;;;23.65;70.75;100384.28;5017033;28;45185;-77
2022/08/31 02:12:56;;;;;;;;;13.33;12.33;;;;;23.63;70.55;100394.09;5016845;28;45601;-76
2022/08/31 02:15:22;;;;;;;;;16.00;14.00;;;;;23.62;70.86;100393.25;5017456;28;45690;-76
2022/08/31 02:17:48;;;;;;;;;13.00;12.00;;;;;23.63;70.73;100403.00;5016000;28;46586;-76
2022/08/31 02:20:15;;;;;;;;;13.00;12.67;;;;;23.73;70.66;100413.41;5017136;28;45434;-76
2022/08/31 02:22:41;;;;;;;;;13.00;11.00;;;;;23.78;70.21;100417.75;5016651;28;45210;-76
2022/08/31 02:25:08;;;;;;;;;12.67;12.00;;;;;23.80;70.46;100418.56;5017338;28;45364;-76
2022/08/31 02:27:35;;;;;;;;;15.00;12.00;;;;;23.71;70.24;100388.56;5015314;28;46626;-76
2022/08/31 02:30:03;;;;;;;;;14.67;13.33;;;;;23.68;70.49;100378.88;5016858;28;45300;-76
2022/08/31 02:32:29;;;;;;;;;13.33;12.33;;;;;23.66;71.10;100380.69;5017052;28;45217;-75
2022/08/31 02:34:55;;;;;;;;;16.67;14.33;;;;;23.60;70.69;100379.06;5016920;28;45407;-76
2022/08/31 02:37:20;;;;;;;;;14.00;13.33;;;;;23.53;71.44;100379.25;5017169;28;46161;-76
2022/08/31 02:39:46;;;;;;;;;13.33;13.00;;;;;23.46;71.54;100383.91;5016974;28;45412;-76
2022/08/31 02:42:11;;;;;;;;;14.00;12.33;;;;;23.51;71.96;100397.09;5015399;28;45582;-66
2022/08/31 02:44:37;;;;;;;;;13.33;12.33;;;;;23.30;72.04;100377.19;5016714;28;45537;-66
2022/08/31 02:47:03;;;;;;;;;14.00;12.67;;;;;23.41;71.45;100386.66;5015075;28;46306;-66
2022/08/31 02:49:31;;;;;;;;;12.33;12.00;;;;;23.38;71.33;100383.22;5016525;28;45315;-66
2022/08/31 02:51:56;;;;;;;;;14.00;12.67;;;;;23.25;71.90;100379.09;5015076;28;45353;-66
2022/08/31 02:54:22;;;;;;;;;17.33;14.33;;;;;23.30;71.31;100377.19;5016913;28;45300;-66
2022/08/31 02:56:48;;;;;;;;;12.00;11.00;;;;;23.39;72.16;100382.28;5016319;28;46407;-66
2022/08/31 02:59:13;;;;;;;;;14.67;12.33;;;;;23.32;72.50;100376.25;5016337;28;45515;-66
2022/08/31 03:01:39;;;;;;;;;12.00;12.00;;;;;23.17;72.22;100358.84;5017050;28;45398;-66
2022/08/31 03:04:05;;;;;;;;;16.33;13.33;;;;;23.40;71.82;100384.06;5020320;28;45364;-66
2022/08/31 03:06:31;;;;;;;;;14.00;12.67;;;;;23.47;72.25;100374.09;5019645;28;45461;-66
2022/08/31 03:08:59;;;;;;;;;14.33;14.00;;;;;23.55;72.26;100374.78;5019923;28;45244;-66
2022/08/31 03:11:25;;;;;;;;;12.67;12.67;;;;;23.58;71.84;100378.22;5020082;28;45415;-66
2022/08/31 03:13:51;;;;;;;;;16.00;15.33;;;;;23.56;71.51;100364.06;5019136;28;45376;-69
2022/08/31 03:16:17;;;;;;;;;12.67;11.67;;;;;23.66;71.39;100380.69;5034029;28;45908;-76
2022/08/31 03:18:43;;;;;;;;;14.33;13.00;;;;;23.65;71.60;100373.59;5016190;28;45474;-76
2022/08/31 03:21:08;;;;;;;;;14.33;13.33;;;;;23.61;71.29;100364.81;5018009;28;45700;-77
2022/08/31 03:23:34;;;;;;;;;12.33;11.33;;;;;23.68;71.24;100372.66;5019087;28;45300;-76
2022/08/31 03:26:00;;;;;;;;;14.67;14.00;;;;;23.61;71.23;100361.28;5019319;28;45534;-70
2022/08/31 03:28:25;;;;;;;;;12.33;12.33;;;;;23.59;71.52;100360.44;5019786;28;45459;-77
2022/08/31 03:30:51;;;;;;;;;16.67;12.33;;;;;23.68;71.10;100372.66;5020329;28;45794;-76
2022/08/31 03:33:17;;;;;;;;;17.00;13.33;;;;;23.66;71.25;100370.03;5019734;28;45217;-77
2022/08/31 03:35:42;;;;;;;;;14.00;13.67;;;;;23.74;71.40;100373.38;5017978;28;46589;-77
2022/08/31 03:38:11;;;;;;;;;13.67;13.00;;;;;23.70;71.08;100354.84;5019372;28;45407;-76
2022/08/31 03:40:37;;;;;;;;;15.33;13.33;;;;;23.73;71.54;100357.41;5019562;28;45422;-77
2022/08/31 03:43:03;;;;;;;;;13.00;12.67;;;;;23.56;71.75;100329.41;5018191;28;45522;-66
2022/08/31 03:45:30;;;;;;;;;16.33;14.33;;;;;23.75;71.17;100374.22;5019214;28;45448;-66
2022/08/31 03:47:58;;;;;;;;;17.67;14.00;;;;;23.77;71.01;100377.72;5019430;28;45576;-66
2022/08/31 03:50:23;;;;;;;;;15.67;14.00;;;;;23.70;71.17;100358.38;5019741;28;45438;-66
2022/08/31 03:52:49;;;;;;;;;14.00;13.67;;;;;23.65;71.40;100352.28;5019344;28;45549;-66
2022/08/31 03:55:14;;;;;;;;;15.67;14.33;;;;;23.55;71.37;100345.44;5019065;28;45573;-66
2022/08/31 03:57:40;;;;;;;;;14.67;13.00;;;;;23.53;71.35;100350.81;5018571;28;45458;-71
2022/08/31 04:00:06;;;;;;;;;14.00;14.00;;;;;23.54;72.09;100357.03;5019313;28;45336;-76
2022/08/31 04:02:32;;;;;;;;;15.67;13.67;;;;;23.55;71.97;100370.31;5019377;28;45546;-76
2022/08/31 04:04:57;;;;;;;;;14.33;14.00;;;;;23.57;71.79;100364.94;5019316;28;45300;-77
2022/08/31 04:07:23;;;;;;;;;14.67;12.67;;;;;23.56;71.33;100363.19;5019317;28;45433;-76
2022/08/31 04:09:49;;;;;;;;;14.33;13.00;;;;;23.60;71.82;100371.06;5019081;28;45530;-77
2022/08/31 04:12:16;;;;;;;;;14.00;13.67;;;;;23.62;71.13;100371.03;5018923;28;45448;-77
2022/08/31 04:14:42;;;;;;;;;13.00;13.00;;;;;23.64;71.36;100371.88;5018409;28;45554;-77
2022/08/31 04:17:11;;;;;;;;;15.67;12.67;;;;;23.63;71.84;100373.66;5018656;28;45473;-77
2022/08/31 04:19:39;;;;;;;;;12.67;12.33;;;;;23.59;71.85;100363.09;5018970;28;45356;-77
2022/08/31 04:22:04;;;;;;;;;17.00;14.67;;;;;23.60;71.59;100360.41;5018607;28;45336;-74
2022/08/31 04:24:30;;;;;;;;;16.33;14.67;;;;;23.55;71.82;100350.78;5018182;28;46128;-74
2022/08/31 04:26:55;;;;;;;;;15.67;13.00;;;;;23.45;71.82;100352.81;5017543;28;45511;-76
2022/08/31 04:29:22;;;;;;;;;12.00;11.33;;;;;23.41;72.61;100349.34;5018579;28;45313;-75
2022/08/31 04:31:48;;;;;;;;;15.00;13.33;;;;;23.46;72.38;100351.00;5018886;28;45539;-77
2022/08/31 04:34:14;;;;;;;;;12.33;12.33;;;;;23.58;72.22;100372.03;5018424;28;45431;-77
2022/08/31 04:36:40;;;;;;;;;15.33;13.33;;;;;23.49;72.12;100358.94;5018900;28;45825;-72
2022/08/31 04:39:06;;;;;;;;;13.33;12.67;;;;;23.63;71.96;100384.34;5018525;28;45325;-77
2022/08/31 04:41:35;;;;;;;;;17.00;14.67;;;;;23.63;71.47;100380.78;5018679;28;45493;-76
2022/08/31 04:44:02;;;;;;;;;16.33;15.00;;;;;23.58;71.24;100367.56;5018458;28;45502;-71
2022/08/31 04:46:29;;;;;;;;;13.33;12.67;;;;;23.49;71.19;100357.13;5018638;28;45440;-77
2022/08/31 04:48:55;;;;;;;;;15.67;13.00;;;;;23.25;71.22;100334.66;5017082;28;45432;-77
2022/08/31 04:51:24;;;;;;;;;13.00;11.33;;;;;23.47;70.85;100371.44;5018510;28;45287;-76
2022/08/31 04:53:51;;;;;;;;;16.67;13.33;;;;;23.42;70.92;100376.91;5033252;28;45823;-76
2022/08/31 04:56:23;;;;;;;;;12.33;12.33;;;;;23.28;70.84;100373.69;5017775;28;45487;-77
2022/08/31 04:59:10;;;;;;;;;16.00;15.33;;;;;23.31;70.82;100382.47;5018431;28;45365;-74
2022/08/31 05:01:39;;;;;;;;;14.33;13.00;;;;;23.26;71.25;100380.84;5017957;28;45451;-76
2022/08/31 05:04:06;;;;;;;;;14.67;13.33;;;;;23.17;70.60;100372.16;5017903;28;46214;-77
2022/08/31 05:06:33;;;;;;;;;13.00;11.00;;;;;23.16;70.25;100390.88;5018233;28;45746;-67
2022/08/31 05:09:07;;;;;;;;;12.00;11.00;;;;;23.05;71.32;100385.78;5018561;28;45490;-77
2022/08/31 05:11:33;;;;;;;;;12.67;12.00;;;;;22.88;71.22;100371.97;5018315;28;45233;-66
2022/08/31 05:14:01;;;;;;;;;12.00;11.67;;;;;22.89;71.54;100381.72;5016764;28;46667;-77
2022/08/31 05:16:29;;;;;;;;;16.67;15.00;;;;;22.67;72.22;100352.03;5016555;28;45535;-77
2022/08/31 05:18:56;;;;;;;;;12.33;11.33;;;;;22.73;71.62;100360.75;5017704;28;45429;-75
2022/08/31 05:21:27;;;;;;;;;15.67;15.00;;;;;22.84;71.90;100380.03;5016391;28;45244;-75
2022/08/31 05:24:21;;;;;;;;;13.67;12.33;;;;;22.86;71.55;100388.00;5016570;28;45763;-72
2022/08/31 05:26:52;;;;;;;;;13.33;11.67;;;;;22.92;71.48;100381.63;5015549;28;45497;-69
2022/08/31 05:29:20;;;;;;;;;13.67;12.67;;;;;22.92;71.57;100374.53;5017221;28;45617;-74
2022/08/31 05:31:46;;;;;;;;;12.00;12.00;;;;;22.92;71.49;100374.53;5017707;28;45456;-75
2022/08/31 05:34:13;;;;;;;;;14.00;13.33;;;;;22.86;71.89;100371.13;5017161;28;45528;-76
2022/08/31 05:36:42;;;;;;;;;14.33;13.00;;;;;22.91;72.03;100380.75;5017330;28;45474;-78
2022/08/31 05:39:10;;;;;;;;;13.67;12.33;;;;;22.82;72.06;100360.56;5017237;28;45294;-66
2022/08/31 05:41:46;;;;;;;;;13.00;13.00;;;;;22.97;71.70;100385.06;5017273;28;45504;-75
2022/08/31 05:44:13;;;;;;;;;11.33;11.33;;;;;22.94;71.17;100379.81;5016462;28;46038;-76
2022/08/31 05:46:39;;;;;;;;;10.67;10.33;;;;;22.81;71.34;100363.25;5014020;28;45537;-76
2022/08/31 05:49:06;;;;;;;;;13.33;12.00;;;;;22.80;71.11;100373.03;5016659;28;45630;-74
2022/08/31 05:51:33;;;;;;;;;12.67;12.67;;;;;22.80;71.40;100378.34;5017033;28;45289;-76
2022/08/31 05:53:59;;;;;;;;;13.67;10.33;;;;;22.81;71.19;100379.22;5013654;28;47119;-75
2022/08/31 05:56:25;;;;;;;;;13.00;11.67;;;;;22.78;71.57;100376.63;5015865;28;45605;-74
2022/08/31 05:58:51;;;;;;;;;14.33;12.67;;;;;22.76;71.96;100381.09;5016492;28;45518;-75
2022/08/31 06:01:22;;;;;;;;;14.00;12.33;;;;;22.78;71.78;100390.84;5016391;28;45506;-65
2022/08/31 06:03:49;;;;;;;;;11.33;11.00;;;;;22.75;72.00;100382.03;5016132;28;45474;-75
2022/08/31 06:06:15;;;;;;;;;11.67;11.67;;;;;22.73;72.15;100375.88;5014850;28;45285;-68
2022/08/31 06:08:42;;;;;;;;;13.67;12.00;;;;;22.73;71.93;100381.19;5015063;28;45492;-74
2022/08/31 06:11:14;;;;;;;;;14.67;13.33;;;;;22.85;71.54;100396.88;5016542;28;45584;-69
2022/08/31 06:13:41;;;;;;;;;14.33;11.00;;;;;22.83;71.33;100394.25;5013590;28;45434;-66
2022/08/31 06:16:08;;;;;;;;;15.67;13.67;;;;;22.82;71.63;100391.66;5016101;28;45457;-66
2022/08/31 06:18:39;;;;;;;;;16.33;14.00;;;;;22.78;71.64;100388.16;5016618;28;45271;-70
2022/08/31 06:21:11;;;;;;;;;16.00;14.33;;;;;22.84;71.18;100403.13;5016269;28;45392;-72
2022/08/31 06:23:39;;;;;;;;;14.00;12.67;;;;;22.70;71.87;100387.47;5015749;28;45890;-76
2022/08/31 06:26:06;;;;;;;;;18.00;14.00;;;;;22.77;72.04;100394.41;5015884;28;45558;-69
2022/08/31 06:28:33;;;;;;;;;16.33;14.33;;;;;22.65;72.35;100384.03;5015685;28;45462;-74
2022/08/31 06:31:00;;;;;;;;;14.33;12.00;;;;;22.69;71.93;100380.38;5016085;28;45543;-76
2022/08/31 06:33:26;;;;;;;;;16.00;14.33;;;;;22.79;71.28;100386.38;5015409;28;46107;-73
2022/08/31 06:35:52;;;;;;;;;15.00;14.33;;;;;22.74;71.53;100366.94;5016731;28;45330;-74
2022/08/31 06:38:18;;;;;;;;;12.00;11.33;;;;;22.75;71.56;100369.59;5019436;28;45494;-76
2022/08/31 06:40:43;;;;;;;;;16.33;15.33;;;;;22.79;71.21;100363.28;5019780;28;45404;-77
2022/08/31 06:43:09;;;;;;;;;16.00;15.00;;;;;22.88;71.18;100377.28;5019220;28;46397;-71
2022/08/31 06:45:34;;;;;;;;;14.33;13.00;;;;;22.89;70.91;100376.38;5019559;28;45312;-74
2022/08/31 06:48:02;;;;;;;;;13.00;12.67;;;;;23.03;71.48;100390.28;5018341;28;45624;-68
2022/08/31 06:50:28;;;;;;;;;15.67;15.67;;;;;22.86;72.11;100358.69;5019690;28;45191;-69
2022/08/31 06:52:54;;;;;;;;;14.33;13.67;;;;;23.12;71.77;100389.16;5018986;28;45324;-76
2022/08/31 06:55:20;;;;;;;;;15.33;14.67;;;;;23.13;72.26;100385.59;5016556;28;45509;-76
2022/08/31 06:57:46;;;;;;;;;13.33;12.67;;;;;23.09;71.91;100368.81;5018873;28;45436;-68
2022/08/31 07:00:11;;;;;;;;;16.67;14.00;;;;;23.18;71.52;100378.38;5019641;28;45732;-73
2022/08/31 07:02:37;;;;;;;;;16.33;15.33;;;;;23.23;72.03;100380.00;5019093;28;46576;-74
2022/08/31 07:05:03;;;;;;;;;15.33;15.33;;;;;23.14;72.08;100345.63;5019774;28;45511;-74
2022/08/31 07:07:30;;;;;;;;;17.67;15.67;;;;;23.38;71.23;100385.88;5020093;28;45266;-77
2022/08/31 07:09:56;;;;;;;;;15.67;15.00;;;;;23.35;71.45;100367.28;5020095;28;45588;-77
2022/08/31 07:12:21;;;;;;;;;17.00;15.00;;;;;23.50;71.37;100382.91;5019318;28;45514;-75
2022/08/31 07:14:47;;;;;;;;;14.00;13.33;;;;;23.58;71.33;100385.38;5019497;28;45519;-79
2022/08/31 07:17:12;;;;;;;;;14.00;12.67;;;;;23.60;71.53;100379.06;5019716;28;45449;-77
2022/08/31 07:19:38;;;;;;;;;14.00;13.00;;;;;23.59;70.90;100371.97;5014907;28;45340;-73
2022/08/31 07:22:08;;;;;;;;;15.33;14.00;;;;;23.59;70.50;100363.97;5021223;28;45486;-66
2022/08/31 07:24:34;;;;;;;;;16.67;16.00;;;;;23.72;70.39;100385.88;5017813;28;45415;-71
2022/08/31 07:27:08;;;;;;;;;12.33;12.00;;;;;23.76;70.55;100389.34;5018825;28;45712;-71
2022/08/31 07:29:39;;;;;;;;;12.00;10.67;;;;;23.70;69.28;100377.03;4991180;28;45445;-72
2022/08/31 07:32:07;;;;;;;;;13.33;12.67;;;;;23.76;69.54;100392.88;5005820;28;46979;-71
2022/08/31 07:34:34;;;;;;;;;13.33;13.00;;;;;23.59;69.80;100353.31;5004380;28;45384;-70
2022/08/31 07:42:35;;;;;;;;;16.33;15.33;;;;;23.95;69.89;100381.72;5014511;28;45490;-71
2022/08/31 07:45:04;;;;;;;;;15.00;13.33;;;;;24.04;69.81;100385.94;5003412;28;45515;-70
2022/08/31 07:47:32;;;;;;;;;14.67;12.33;;;;;24.10;69.33;100389.31;5005337;28;45344;-71
2022/08/31 07:49:59;;;;;;;;;18.33;16.00;;;;;24.13;68.82;100397.22;5005509;28;45438;-71
2022/08/31 07:52:31;;;;;;;;;15.67;15.00;;;;;24.12;68.63;100395.47;5004069;28;46801;-71
2022/08/31 07:55:10;;;;;;;;;17.67;16.67;;;;;24.08;68.41;100388.47;5012724;28;45365;-69
2022/08/31 07:57:42;;;;;;;;;17.67;17.00;;;;;23.90;68.02;100370.31;5016623;28;45455;-70
2022/08/31 08:00:22;;;;;;;;;19.33;16.67;;;;;24.07;67.87;100396.50;5031964;28;45886;-70
2022/08/31 08:02:48;;;;;;;;;17.00;14.00;;;;;23.99;68.70;100405.63;5010755;28;46822;-70
2022/08/31 08:05:21;;;;;;;;;15.00;13.67;;;;;23.89;68.50;100409.44;5014321;28;45387;-70
2022/08/31 08:07:53;;;;;;;;;14.00;14.00;;;;;23.71;68.99;100412.56;5006278;28;45510;-68
2022/08/31 08:10:22;;;;;;;;;16.00;16.00;;;;;23.65;69.83;100412.75;5007255;28;45720;-75
2022/08/31 08:13:02;;;;;;;;;14.00;14.00;;;;;23.60;69.61;100405.72;5014237;28;47744;-69
2022/08/31 08:15:29;;;;;;;;;15.00;14.00;;;;;23.49;71.12;100414.91;5005494;28;45511;-85
2022/08/31 08:17:55;;;;;;;;;18.00;15.67;;;;;23.53;70.93;100427.25;5006474;28;45504;-75
2022/08/31 08:20:21;;;;;;;;;17.33;16.33;;;;;23.53;71.03;100411.25;5022487;28;45463;-77
2022/08/31 08:22:48;;;;;;;;;15.00;14.00;;;;;23.63;70.18;100404.78;5008488;28;45411;-69
2022/08/31 08:25:14;;;;;;;;;17.67;15.67;;;;;23.71;69.55;100404.56;5007679;28;45432;-85
2022/08/31 08:27:41;;;;;;;;;13.33;12.67;;;;;23.74;69.71;100412.50;5010878;28;45565;-62
2022/08/31 08:30:12;;;;;;;;;15.33;14.00;;;;;23.95;69.45;100419.94;4998592;28;45375;-73
2022/08/31 08:32:39;;;;;;;;;16.33;14.00;;;;;24.08;69.35;100407.16;5001566;28;47172;-83
2022/08/31 08:35:06;;;;;;;;;13.67;12.33;;;;;24.29;68.10;100408.34;5006662;28;45483;-80
2022/08/31 08:37:32;;;;;;;;;13.00;13.00;;;;;24.32;67.53;100400.22;5008818;28;45272;-77
2022/08/31 08:40:00;;;;;;;;;15.33;14.00;;;;;24.53;67.06;100417.47;5006635;28;45473;-73
2022/08/31 08:42:26;;;;;;;;;14.67;12.33;;;;;24.67;66.69;100409.03;5007486;28;45423;-69
2022/08/31 08:44:52;;;;;;;;;12.33;12.00;;;;;24.91;66.05;100411.84;5005869;28;45894;-70
2022/08/31 08:47:23;;;;;;;;;13.00;11.00;;;;;25.23;64.93;100405.50;5005768;28;45489;-71
2022/08/31 08:49:52;;;;;;;;;13.67;13.00;;;;;25.68;63.63;100404.84;5003981;28;45451;-72
2022/08/31 08:52:31;;;;;;;;;13.00;12.00;;;;;25.99;62.56;100407.34;5017256;28;45407;-72
2022/08/31 08:55:03;;;;;;;;;16.33;13.00;;;;;26.01;62.39;100385.03;5016859;28;45462;-70
2022/08/31 08:57:31;;;;;;;;;15.33;15.00;;;;;26.22;61.46;100408.31;5016552;28;45495;-70
2022/08/31 09:00:02;;;;;;;;;12.67;11.33;;;;;26.33;61.01;100418.63;4995339;28;45277;-68
2022/08/31 09:02:42;;;;;;;;;13.67;13.00;;;;;26.29;61.03;100417.00;4996152;28;45384;-72
2022/08/31 09:05:10;;;;;;;;;15.33;14.00;;;;;26.41;60.75;100424.56;4995973;28;45471;-71
2022/08/31 09:08:08;;;;;;;;;17.33;13.67;;;;;26.09;59.99;100415.06;5010133;28;45495;-71
2022/08/31 09:10:44;;;;;;;;;15.00;14.33;;;;;25.94;59.72;100417.38;4997116;28;45533;-72
2022/08/31 09:13:31;;;;;;;;;13.00;13.00;;;;;25.84;60.36;100458.72;4996250;28;46042;-70
2022/08/31 09:16:16;;;;;;;;;20.67;20.33;;;;;25.92;60.70;100456.66;4999951;28;45554;-69
2022/08/31 09:19:03;;;;;;;;;19.67;18.00;;;;;25.93;60.71;100460.25;5004467;28;45359;-69
2022/08/31 09:21:33;;;;;;;;;15.00;13.67;;;;;25.81;60.76;100437.44;5000226;28;45552;-72
2022/08/31 09:24:13;;;;;;;;;16.33;14.67;;;;;26.05;60.99;100448.22;5005590;28;46164;-72
2022/08/31 09:26:53;;;;;;;;;22.00;16.67;;;;;26.32;59.77;100444.56;5011032;28;45252;-82
2022/08/31 09:29:27;;;;;;;;;17.67;15.33;;;;;26.38;59.22;100432.72;5001395;28;45447;-83
2022/08/31 09:32:06;;;;;;;;;14.00;12.00;;;;;26.59;59.01;100439.97;4995861;28;45939;-84
2022/08/31 09:34:42;;;;;;;;;14.00;13.00;;;;;26.62;58.93;100435.44;4997095;28;46111;-78
2022/08/31 09:37:23;;;;;;;;;14.00;12.00;;;;;26.55;58.22;100446.34;4996788;28;45431;-84
2022/08/31 09:39:51;;;;;;;;;13.00;12.00;;;;;26.47;58.37;100453.81;4997298;28;45547;-74
2022/08/31 09:42:29;;;;;;;;;12.67;11.33;;;;;26.43;58.81;100445.94;4997429;28;45225;-84
2022/08/31 09:45:01;;;;;;;;;13.00;13.00;;;;;26.48;59.20;100452.00;4997011;28;45542;-74
2022/08/31 09:47:47;;;;;;;;;14.00;12.00;;;;;26.55;59.17;100450.84;4996972;28;45253;-83
2022/08/31 09:50:26;;;;;;;;;16.00;13.67;;;;;26.35;58.42;100432.84;4997180;28;45170;-83
2022/08/31 09:56:15;;;;;;;;;13.67;13.00;;;;;26.21;59.13;100445.88;4996508;28;45462;-81
2022/08/31 09:58:53;;;;;;;;;13.00;12.00;;;;;26.22;59.11;100456.50;4997040;28;45546;-79
2022/08/31 10:01:46;;;;;;;;;16.00;13.00;;;;;26.27;59.30;100448.31;4997214;28;45541;-83
2022/08/31 10:04:17;;;;;;;;;14.00;12.00;;;;;26.56;58.88;100447.22;4997488;28;45233;-83
2022/08/31 10:06:48;;;;;;;;;13.67;13.67;;;;;26.95;58.07;100449.34;4997116;28;45415;-82
2022/08/31 10:09:27;;;;;;;;;14.00;13.67;;;;;27.31;57.19;100441.63;4997206;28;45967;-79
2022/08/31 10:11:58;;;;;;;;;11.33;11.33;;;;;28.31;55.46;100448.13;4996128;28;45323;-83
2022/08/31 10:14:35;;;;;;;;;13.67;11.33;;;;;28.56;54.09;100447.88;4995489;28;45332;-69
2022/08/31 10:17:09;;;;;;;;;20.67;20.33;;;;;28.59;53.98;100456.72;4996976;28;45396;-84
2022/08/31 10:19:54;;;;;;;;;14.33;13.00;;;;;28.61;53.89;100445.00;5011731;28;46037;-75
2022/08/31 10:22:28;;;;;;;;;14.33;13.67;;;;;28.80;54.00;100454.88;4996560;28;45273;-84
2022/08/31 10:25:20;;;;;;;;;11.00;11.00;;;;;28.84;55.10;100443.03;4996899;28;45305;-66
2022/08/31 10:27:59;;;;;;;;;13.67;12.67;;;;;28.95;54.70;100459.53;4995973;28;46179;-79
2022/08/31 10:30:33;;;;;;;;;14.00;13.00;;;;;29.25;54.32;100456.31;4996088;28;45332;-71
2022/08/31 10:33:04;;;;;;;;;13.33;13.00;;;;;29.59;53.32;100446.56;4996617;28;45531;-83
2022/08/31 10:35:56;;;;;;;;;14.00;13.67;;;;;30.11;52.49;100455.50;4996701;28;45503;-72
2022/08/31 10:38:28;;;;;;;;;15.00;14.00;;;;;31.47;51.01;100439.97;4995259;28;45683;-72
2022/08/31 10:41:07;;;;;;;;;14.00;14.00;;;;;32.66;47.63;100445.31;4996279;28;45369;-69
2022/08/31 10:44:00;;;;;;;;;18.33;18.33;;;;;32.64;49.39;100403.09;4995907;28;45460;-75
2022/08/31 10:46:27;;;;;;;;;13.00;11.33;;;;;32.77;46.04;100439.22;4996569;28;45227;-73
2022/08/31 10:48:56;;;;;;;;;13.33;12.67;;;;;32.09;46.86;100427.25;4995703;28;46177;-82
2022/08/31 10:51:34;;;;;;;;;16.00;13.33;;;;;32.02;48.33;100439.38;4995681;28;45502;-67
2022/08/31 10:54:27;;;;;;;;;16.00;13.33;;;;;32.18;49.16;100433.91;5011628;28;45275;-83
2022/08/31 10:57:30;;;;;;;;;13.00;12.00;;;;;32.28;47.61;100437.75;5011848;28;45460;-78
2022/08/31 11:00:40;;;;;;;;;11.33;11.00;;;;;31.81;46.43;100430.72;4995988;28;45736;-83
2022/08/31 11:03:12;;;;;;;;;13.00;12.67;;;;;31.78;46.33;100449.81;4995935;28;45411;-82
2022/08/31 11:05:59;;;;;;;;;10.33;9.67;;;;;32.17;46.37;100440.28;4996009;28;45425;-66
2022/08/31 11:09:09;;;;;;;;;17.00;16.67;;;;;32.33;44.45;100440.16;4996078;28;45308;-69
2022/08/31 11:12:03;;;;;;;;;14.00;12.33;;;;;32.35;45.30;100419.34;4993783;28;45823;-76
2022/08/31 11:14:44;;;;;;;;;13.00;12.00;;;;;32.68;43.59;100418.16;5010703;28;45417;-81
2022/08/31 11:17:21;;;;;;;;;13.00;12.33;;;;;32.79;44.67;100412.03;4996092;28;45305;-80
2022/08/31 11:20:05;;;;;;;;;11.00;10.67;;;;;32.74;43.20;100415.06;5011537;28;45434;-80
2022/08/31 11:23:04;;;;;;;;;11.33;11.00;;;;;32.33;44.11;100409.56;4995913;28;45245;-82
2022/08/31 11:25:55;;;;;;;;;11.67;10.67;;;;;31.72;46.06;100412.38;4999317;28;45441;-77
2022/08/31 11:28:32;;;;;;;;;11.67;11.00;;;;;31.36;46.30;100427.09;4999057;28;45512;-83
2022/08/31 11:31:02;;;;;;;;;11.00;10.33;;;;;30.84;48.22;100416.53;5010759;28;45489;-83
2022/08/31 11:33:30;;;;;;;;;11.00;9.67;;;;;30.46;47.30;100411.47;4998997;28;45246;-83
2022/08/31 11:36:07;;;;;;;;;13.33;12.67;;;;;30.08;48.71;100423.38;5013669;28;45490;-84